Toowoomba, Australia
Current Conditions -  °F | °C
As of 2:00 PM on Thursday 23 Oct 2014 (Local Time) from YBOK Reporting Station
Few Clouds Few Clouds  
Wind Chill: 82°   Ceiling: Unl
Heat Index: 82°   Visibility: 6mi
Dew Point: 46°   Wind: 7mph
Humidity: 28%   Direction: 90°E
Pressure: 30.06"   Gusts: NA
Location:  27.56°S, 151.96°E
Report Text: YBOK 230400Z 09006KT 9999 FEW048 28/08 Q1018 NOSIG
Loading
Personal Weather Stations






























Interactive Weather Map
Tropical Storm Tracking
New forecast layout! Learn more

10-Day Weather Forecast

Advertisements
Track Severe Weather on mobile